createdAt,value
2019-05-26T00:04:12.318Z,8.90
2019-05-26T00:09:06.051Z,8.93
2019-05-26T00:13:59.613Z,9.73
2019-05-26T00:18:53.109Z,9.80
2019-05-26T00:23:46.989Z,10.03
2019-05-26T00:28:40.332Z,11.00
2019-05-26T00:33:33.701Z,7.60
2019-05-26T00:38:27.104Z,7.90
2019-05-26T00:43:20.459Z,13.70
2019-05-26T00:48:13.868Z,14.33
2019-05-26T00:53:07.208Z,13.67
2019-05-26T00:58:00.555Z,16.37
2019-05-26T01:02:53.946Z,15.73
2019-05-26T01:07:47.405Z,16.30
2019-05-26T01:12:40.764Z,16.50
2019-05-26T01:17:34.115Z,16.87
2019-05-26T01:22:27.860Z,18.67
2019-05-26T01:27:21.414Z,19.62
2019-05-26T01:32:14.762Z,19.07
2019-05-26T01:37:08.128Z,21.62
2019-05-26T01:42:01.666Z,21.70
2019-05-26T01:46:54.999Z,21.97
2019-05-26T01:51:48.438Z,23.57
2019-05-26T01:56:41.763Z,23.27
2019-05-26T02:01:35.242Z,22.40
2019-05-26T02:06:28.583Z,24.83
2019-05-26T02:11:22.225Z,25.53
2019-05-26T02:16:15.587Z,24.33
2019-05-26T02:21:08.986Z,23.93
2019-05-26T02:26:02.352Z,24.13
2019-05-26T02:30:55.751Z,25.87
2019-05-26T02:35:49.111Z,24.17
2019-05-26T02:40:42.476Z,25.27
2019-05-26T02:45:35.851Z,24.70
2019-05-26T02:50:29.193Z,25.67
2019-05-26T02:55:22.536Z,24.00
2019-05-26T03:00:17.322Z,24.47
2019-05-26T03:05:10.686Z,22.37
2019-05-26T03:10:04.351Z,22.93
2019-05-26T03:14:57.708Z,21.77
2019-05-26T03:19:51.564Z,22.53
2019-05-26T03:24:45.035Z,22.27
2019-05-26T03:29:38.479Z,21.40
2019-05-26T03:34:32.199Z,21.57
2019-05-26T03:39:42.257Z,23.03
2019-05-26T03:44:18.867Z,20.67
2019-05-26T03:49:12.569Z,16.73
2019-05-26T03:54:05.916Z,15.33
2019-05-26T03:58:59.497Z,12.80
2019-05-26T04:03:52.811Z,11.07
2019-05-26T04:08:46.208Z,10.00
2019-05-26T04:13:39.961Z,9.73
2019-05-26T04:18:33.267Z,8.80
2019-05-26T04:23:26.662Z,8.07
2019-05-26T04:28:21.046Z,6.77
2019-05-26T04:33:14.597Z,7.20
2019-05-26T04:38:08.216Z,6.70
2019-05-26T04:43:01.560Z,6.40
2019-05-26T04:47:54.896Z,6.77
2019-05-26T04:53:05.642Z,6.00
2019-05-26T04:57:41.557Z,5.00
2019-05-26T05:02:34.888Z,5.73
2019-05-26T05:07:28.763Z,5.10
2019-05-26T05:12:21.542Z,5.87
2019-05-26T05:17:14.873Z,4.67
2019-05-26T05:22:08.299Z,4.70
2019-05-26T05:27:01.636Z,4.67
2019-05-26T05:31:55.066Z,4.30
2019-05-26T05:36:48.388Z,4.47
2019-05-26T05:41:42.443Z,4.60
2019-05-26T05:46:35.786Z,3.93
2019-05-26T05:51:29.217Z,4.43
2019-05-26T05:56:22.928Z,4.43
2019-05-26T06:01:16.569Z,3.87
2019-05-26T06:06:09.896Z,4.50
2019-05-26T06:11:16.074Z,3.60
2019-05-26T06:16:00.070Z,4.17
2019-05-26T06:20:56.504Z,3.53
2019-05-26T06:25:49.845Z,3.63
2019-05-26T06:30:45.006Z,4.07
2019-05-26T06:35:38.351Z,3.60
2019-05-26T06:40:31.704Z,3.53
2019-05-26T06:45:25.041Z,3.40
2019-05-26T06:50:18.755Z,3.83
2019-05-26T06:55:12.272Z,4.50
2019-05-26T07:00:05.637Z,4.13
2019-05-26T07:04:59.199Z,4.07
2019-05-26T07:09:52.793Z,4.20
2019-05-26T07:14:46.228Z,4.13
2019-05-26T07:19:39.863Z,3.60
2019-05-26T07:24:33.205Z,4.00
2019-05-26T07:29:26.617Z,4.37
2019-05-26T07:34:19.960Z,3.97
2019-05-26T07:39:13.384Z,3.90
2019-05-26T07:44:06.834Z,4.27
2019-05-26T07:49:00.634Z,4.13
2019-05-26T07:53:56.114Z,4.40
2019-05-26T07:58:47.311Z,4.30
2019-05-26T08:03:41.178Z,4.60
2019-05-26T08:08:34.515Z,4.70
2019-05-26T08:13:28.169Z,8.13
2019-05-26T08:18:21.901Z,10.20
2019-05-26T08:23:15.839Z,9.90
2019-05-26T08:28:09.017Z,9.70
2019-05-26T08:33:02.781Z,10.10
2019-05-26T08:37:56.117Z,9.50
2019-05-26T08:42:50.126Z,8.50
2019-05-26T08:47:43.508Z,8.60
2019-05-26T08:52:36.917Z,8.87
2019-05-26T08:57:30.243Z,8.03
2019-05-26T09:02:23.578Z,7.60
2019-05-26T09:07:16.959Z,9.68
2019-05-26T09:12:10.349Z,6.63
2019-05-26T09:17:03.694Z,7.47
2019-05-26T09:21:57.083Z,7.57
2019-05-26T09:26:50.400Z,7.53
2019-05-26T09:31:44.205Z,6.20
2019-05-26T09:36:37.546Z,5.93
2019-05-26T09:41:30.916Z,5.87
2019-05-26T09:46:25.577Z,5.60
2019-05-26T09:51:19.219Z,4.50
2019-05-26T09:56:12.582Z,4.27
2019-05-26T10:01:05.910Z,4.50
2019-05-26T10:05:59.261Z,4.47
2019-05-26T10:10:52.757Z,4.63
2019-05-26T10:15:46.213Z,5.23
2019-05-26T10:20:39.562Z,5.27
2019-05-26T10:25:32.912Z,5.00
2019-05-26T10:30:26.284Z,5.40
2019-05-26T10:35:19.679Z,5.87
2019-05-26T10:40:13.557Z,5.80
2019-05-26T10:45:06.934Z,5.63
2019-05-26T10:50:00.698Z,5.70
2019-05-26T10:54:54.234Z,5.90
2019-05-26T10:59:48.067Z,5.60
2019-05-26T11:04:41.439Z,5.93
2019-05-26T11:09:34.801Z,5.40
2019-05-26T11:14:28.147Z,5.58
2019-05-26T11:19:21.499Z,5.23
2019-05-26T11:24:14.866Z,5.47
2019-05-26T11:29:08.343Z,5.00
2019-05-26T11:34:01.696Z,5.60
2019-05-26T11:38:55.086Z,5.47
2019-05-26T11:43:48.416Z,5.07
2019-05-26T11:48:41.889Z,5.13
2019-05-26T11:53:35.226Z,4.50
2019-05-26T11:58:28.615Z,4.80
2019-05-26T12:03:21.946Z,4.47
2019-05-26T12:08:15.448Z,4.00
2019-05-26T12:13:08.793Z,3.70
2019-05-26T12:18:02.423Z,3.63
2019-05-26T12:22:55.742Z,3.83
2019-05-26T12:27:49.066Z,3.67
2019-05-26T12:32:42.398Z,3.97
2019-05-26T12:37:35.701Z,3.60
2019-05-26T12:42:29.023Z,3.50
2019-05-26T12:47:22.336Z,3.93
2019-05-26T12:52:15.777Z,3.87
2019-05-26T12:57:09.083Z,3.77
2019-05-26T13:02:02.539Z,4.10
2019-05-26T13:06:55.961Z,4.03
2019-05-26T13:11:49.612Z,4.37
2019-05-26T13:16:43.017Z,3.33
2019-05-26T13:21:36.664Z,4.17
2019-05-26T13:26:30.003Z,3.97
2019-05-26T13:31:23.736Z,3.07
2019-05-26T13:36:17.088Z,3.07
2019-05-26T13:41:10.792Z,3.60
2019-05-26T13:46:04.137Z,2.60
2019-05-26T13:50:57.477Z,2.57
2019-05-26T13:55:51.279Z,2.43
2019-05-26T14:00:44.938Z,2.80
2019-05-26T14:05:38.280Z,3.57
2019-05-26T14:10:32.341Z,2.73
2019-05-26T14:15:37.333Z,2.53
2019-05-26T14:20:19.374Z,2.67
2019-05-26T14:25:15.665Z,2.97
2019-05-26T14:30:06.117Z,3.40
2019-05-26T14:34:59.474Z,3.07
2019-05-26T14:39:52.918Z,3.90
2019-05-26T14:44:46.267Z,3.50
2019-05-26T14:49:39.691Z,3.20
2019-05-26T14:54:33.138Z,2.90
2019-05-26T14:59:26.703Z,3.67
2019-05-26T15:04:20.008Z,3.17
2019-05-26T15:09:24.739Z,3.10
2019-05-26T15:14:06.839Z,3.37
2019-05-26T15:19:00.543Z,3.27
2019-05-26T15:23:53.891Z,3.30
2019-05-26T15:28:47.488Z,3.07
2019-05-26T15:33:40.982Z,2.83
2019-05-26T15:38:43.156Z,2.77
2019-05-26T15:43:27.709Z,2.97
2019-05-26T15:48:21.118Z,3.00
2019-05-26T15:53:14.473Z,3.00
2019-05-26T15:58:07.900Z,2.73
2019-05-26T16:03:01.580Z,2.30
2019-05-26T16:07:54.917Z,2.40
2019-05-26T16:12:48.241Z,2.37
2019-05-26T16:17:41.859Z,2.43
2019-05-26T16:22:35.691Z,2.37
2019-05-26T16:27:29.041Z,2.23
2019-05-26T16:32:22.467Z,2.27
2019-05-26T16:37:15.819Z,2.37
2019-05-26T16:42:09.423Z,1.97
2019-05-26T16:47:03.132Z,2.40
2019-05-26T16:51:59.508Z,2.33
2019-05-26T16:56:52.841Z,2.33
2019-05-26T17:01:46.397Z,2.30
2019-05-26T17:06:39.747Z,2.40
2019-05-26T17:11:33.091Z,2.37
2019-05-26T17:16:26.417Z,2.83
2019-05-26T17:21:19.926Z,2.75
2019-05-26T17:26:13.275Z,2.67
2019-05-26T17:31:06.702Z,2.60
2019-05-26T17:36:00.050Z,2.77
2019-05-26T17:40:53.743Z,2.57
2019-05-26T17:45:47.094Z,2.70
2019-05-26T17:50:40.446Z,2.40
2019-05-26T17:55:33.827Z,3.30
2019-05-26T18:00:27.186Z,2.47
2019-05-26T18:05:20.534Z,2.90
2019-05-26T18:10:13.878Z,2.60
2019-05-26T18:15:07.348Z,3.10
2019-05-26T18:20:01.223Z,3.10
2019-05-26T18:24:58.356Z,3.00
2019-05-26T18:29:48.166Z,3.10
2019-05-26T18:34:41.506Z,3.13
2019-05-26T18:39:35.237Z,3.33
2019-05-26T18:44:28.584Z,3.57
2019-05-26T18:49:22.209Z,3.77
2019-05-26T18:54:15.542Z,3.20
2019-05-26T18:59:09.044Z,3.57
2019-05-26T19:04:02.402Z,3.40
2019-05-26T19:08:55.804Z,3.33
2019-05-26T19:13:49.146Z,3.30
2019-05-26T19:18:42.570Z,3.53
2019-05-26T19:23:35.911Z,3.07
2019-05-26T19:28:29.316Z,3.80
2019-05-26T19:33:22.637Z,3.13
2019-05-26T19:38:16.072Z,3.10
2019-05-26T19:43:09.396Z,3.23
2019-05-26T19:48:02.713Z,3.00
2019-05-26T19:52:56.023Z,3.00
2019-05-26T19:57:49.344Z,3.20
2019-05-26T20:02:42.992Z,3.03
2019-05-26T20:07:36.320Z,3.57
2019-05-26T20:12:29.626Z,3.17
2019-05-26T20:17:22.973Z,3.40
2019-05-26T20:22:16.492Z,3.63
2019-05-26T20:27:09.866Z,3.00
2019-05-26T20:32:03.568Z,3.23
2019-05-26T20:36:56.889Z,3.00
2019-05-26T20:41:50.614Z,2.90
2019-05-26T20:46:43.978Z,2.80
2019-05-26T20:51:37.346Z,2.97
2019-05-26T20:56:30.669Z,2.60
2019-05-26T21:01:24.167Z,3.33
2019-05-26T21:06:17.507Z,3.50
2019-05-26T21:11:10.886Z,3.20
2019-05-26T21:16:04.219Z,3.20
2019-05-26T21:20:57.666Z,3.23
2019-05-26T21:25:51.018Z,3.50
2019-05-26T21:30:44.347Z,3.07
2019-05-26T21:35:37.683Z,3.70
2019-05-26T21:40:31.173Z,3.37
2019-05-26T21:45:24.507Z,3.47
2019-05-26T21:50:17.862Z,3.47
2019-05-26T21:55:11.324Z,3.27
2019-05-26T22:00:05.648Z,3.50
2019-05-26T22:04:58.989Z,4.03
2019-05-26T22:09:52.665Z,4.10
2019-05-26T22:14:46.016Z,4.37
2019-05-26T22:19:40.345Z,4.40
2019-05-26T22:24:33.692Z,3.97
2019-05-26T22:29:27.086Z,4.73
2019-05-26T22:34:20.442Z,4.70
2019-05-26T22:39:14.106Z,5.23
2019-05-26T22:44:07.437Z,4.90
2019-05-26T22:49:00.786Z,6.03
2019-05-26T22:53:54.129Z,5.23
2019-05-26T22:58:47.474Z,5.50
2019-05-26T23:03:40.810Z,5.03
2019-05-26T23:08:34.186Z,4.73
2019-05-26T23:13:27.854Z,5.00
2019-05-26T23:18:21.182Z,4.93
2019-05-26T23:23:14.909Z,5.07
2019-05-26T23:28:08.243Z,5.27
2019-05-26T23:33:01.572Z,5.03
2019-05-26T23:37:54.913Z,4.90
2019-05-26T23:42:48.252Z,4.73
2019-05-26T23:47:41.611Z,4.57
2019-05-26T23:52:35.006Z,4.53
2019-05-26T23:57:28.338Z,4.50
